sensor_id;sensor_type;location;lat;lon;timestamp;P1;durP1;ratioP1;P2;durP2;ratioP2
24685;SDS011;12804;51.176;4.452;2023-04-03T00:01:56;8.93;;;6.10;;
24685;SDS011;12804;51.176;4.452;2023-04-03T00:04:22;9.15;;;6.65;;
24685;SDS011;12804;51.176;4.452;2023-04-03T00:06:48;8.13;;;6.35;;
24685;SDS011;12804;51.176;4.452;2023-04-03T00:09:14;7.93;;;6.40;;
24685;SDS011;12804;51.176;4.452;2023-04-03T00:11:40;10.68;;;6.63;;
24685;SDS011;12804;51.176;4.452;2023-04-03T00:14:05;8.77;;;6.75;;
24685;SDS011;12804;51.176;4.452;2023-04-03T00:16:31;11.48;;;7.32;;
24685;SDS011;12804;51.176;4.452;2023-04-03T00:18:57;8.38;;;6.60;;
24685;SDS011;12804;51.176;4.452;2023-04-03T00:21:23;9.73;;;6.47;;
24685;SDS011;12804;51.176;4.452;2023-04-03T00:23:49;9.00;;;7.45;;
24685;SDS011;12804;51.176;4.452;2023-04-03T00:26:15;9.80;;;7.28;;
24685;SDS011;12804;51.176;4.452;2023-04-03T00:28:41;8.10;;;6.78;;
24685;SDS011;12804;51.176;4.452;2023-04-03T00:31:07;8.90;;;7.05;;
24685;SDS011;12804;51.176;4.452;2023-04-03T00:33:34;9.80;;;7.10;;
24685;SDS011;12804;51.176;4.452;2023-04-03T00:36:07;8.73;;;7.30;;
24685;SDS011;12804;51.176;4.452;2023-04-03T00:38:34;10.48;;;7.00;;
24685;SDS011;12804;51.176;4.452;2023-04-03T00:41:00;9.35;;;6.90;;
24685;SDS011;12804;51.176;4.452;2023-04-03T00:43:27;10.55;;;7.85;;
24685;SDS011;12804;51.176;4.452;2023-04-03T00:45:53;10.48;;;7.38;;
24685;SDS011;12804;51.176;4.452;2023-04-03T00:48:22;10.68;;;6.85;;
24685;SDS011;12804;51.176;4.452;2023-04-03T00:50:54;11.27;;;7.13;;
24685;SDS011;12804;51.176;4.452;2023-04-03T00:53:31;10.77;;;7.22;;
24685;SDS011;12804;51.176;4.452;2023-04-03T00:56:01;8.68;;;7.65;;
24685;SDS011;12804;51.176;4.452;2023-04-03T00:58:33;9.95;;;7.35;;
24685;SDS011;12804;51.176;4.452;2023-04-03T01:01:08;9.45;;;7.07;;
24685;SDS011;12804;51.176;4.452;2023-04-03T01:03:37;11.35;;;7.45;;
24685;SDS011;12804;51.176;4.452;2023-04-03T01:06:04;10.25;;;6.95;;
24685;SDS011;12804;51.176;4.452;2023-04-03T01:08:31;10.80;;;7.15;;
24685;SDS011;12804;51.176;4.452;2023-04-03T01:10:57;7.65;;;6.88;;
24685;SDS011;12804;51.176;4.452;2023-04-03T01:13:31;8.77;;;7.18;;
24685;SDS011;12804;51.176;4.452;2023-04-03T01:16:02;7.97;;;6.60;;
24685;SDS011;12804;51.176;4.452;2023-04-03T01:18:29;9.05;;;6.90;;
24685;SDS011;12804;51.176;4.452;2023-04-03T01:24:07;10.38;;;7.88;;
24685;SDS011;12804;51.176;4.452;2023-04-03T01:26:38;12.80;;;7.85;;
24685;SDS011;12804;51.176;4.452;2023-04-03T01:29:04;10.23;;;7.20;;
24685;SDS011;12804;51.176;4.452;2023-04-03T01:34:08;8.48;;;7.00;;
24685;SDS011;12804;51.176;4.452;2023-04-03T01:36:34;10.82;;;7.25;;
24685;SDS011;12804;51.176;4.452;2023-04-03T01:39:01;7.38;;;6.60;;
24685;SDS011;12804;51.176;4.452;2023-04-03T01:41:27;8.77;;;7.07;;
24685;SDS011;12804;51.176;4.452;2023-04-03T01:44:00;7.70;;;6.72;;
24685;SDS011;12804;51.176;4.452;2023-04-03T01:46:26;9.00;;;6.90;;
24685;SDS011;12804;51.176;4.452;2023-04-03T01:48:52;11.18;;;7.45;;
24685;SDS011;12804;51.176;4.452;2023-04-03T01:51:18;9.30;;;7.20;;
24685;SDS011;12804;51.176;4.452;2023-04-03T01:53:43;9.63;;;6.45;;
24685;SDS011;12804;51.176;4.452;2023-04-03T01:56:09;9.00;;;7.30;;
24685;SDS011;12804;51.176;4.452;2023-04-03T01:58:38;8.38;;;6.93;;
24685;SDS011;12804;51.176;4.452;2023-04-03T02:01:04;9.82;;;7.10;;
24685;SDS011;12804;51.176;4.452;2023-04-03T02:03:31;8.57;;;6.93;;
24685;SDS011;12804;51.176;4.452;2023-04-03T02:05:57;8.10;;;7.03;;
24685;SDS011;12804;51.176;4.452;2023-04-03T02:08:23;9.80;;;7.13;;
24685;SDS011;12804;51.176;4.452;2023-04-03T02:10:52;9.07;;;7.22;;
24685;SDS011;12804;51.176;4.452;2023-04-03T02:13:18;11.95;;;7.72;;
24685;SDS011;12804;51.176;4.452;2023-04-03T02:15:44;10.80;;;7.65;;
24685;SDS011;12804;51.176;4.452;2023-04-03T02:18:15;8.75;;;7.07;;
24685;SDS011;12804;51.176;4.452;2023-04-03T02:20:41;9.43;;;7.22;;
24685;SDS011;12804;51.176;4.452;2023-04-03T02:23:07;10.63;;;7.28;;
24685;SDS011;12804;51.176;4.452;2023-04-03T02:25:33;9.38;;;7.13;;
24685;SDS011;12804;51.176;4.452;2023-04-03T02:28:00;12.02;;;7.75;;
24685;SDS011;12804;51.176;4.452;2023-04-03T02:30:25;7.90;;;7.10;;
24685;SDS011;12804;51.176;4.452;2023-04-03T02:32:51;9.07;;;7.28;;
24685;SDS011;12804;51.176;4.452;2023-04-03T02:35:19;8.05;;;7.18;;
24685;SDS011;12804;51.176;4.452;2023-04-03T02:37:46;8.45;;;7.20;;
24685;SDS011;12804;51.176;4.452;2023-04-03T02:40:12;8.77;;;6.75;;
24685;SDS011;12804;51.176;4.452;2023-04-03T02:42:38;10.25;;;6.68;;
24685;SDS011;12804;51.176;4.452;2023-04-03T02:45:04;8.57;;;7.30;;
24685;SDS011;12804;51.176;4.452;2023-04-03T02:47:31;11.68;;;7.38;;
24685;SDS011;12804;51.176;4.452;2023-04-03T02:50:00;11.30;;;8.45;;
24685;SDS011;12804;51.176;4.452;2023-04-03T02:52:26;9.30;;;7.00;;
24685;SDS011;12804;51.176;4.452;2023-04-03T02:54:54;10.25;;;7.60;;
24685;SDS011;12804;51.176;4.452;2023-04-03T02:57:20;8.43;;;7.00;;
24685;SDS011;12804;51.176;4.452;2023-04-03T02:59:46;13.60;;;8.05;;
24685;SDS011;12804;51.176;4.452;2023-04-03T03:02:12;9.43;;;7.72;;
24685;SDS011;12804;51.176;4.452;2023-04-03T03:04:38;13.13;;;7.68;;
24685;SDS011;12804;51.176;4.452;2023-04-03T03:07:04;9.32;;;7.30;;
24685;SDS011;12804;51.176;4.452;2023-04-03T03:09:30;10.48;;;7.95;;
24685;SDS011;12804;51.176;4.452;2023-04-03T03:11:57;11.82;;;7.85;;
24685;SDS011;12804;51.176;4.452;2023-04-03T03:14:23;10.35;;;7.70;;
24685;SDS011;12804;51.176;4.452;2023-04-03T03:16:49;10.38;;;7.47;;
24685;SDS011;12804;51.176;4.452;2023-04-03T03:19:18;11.93;;;7.97;;
24685;SDS011;12804;51.176;4.452;2023-04-03T03:21:44;10.75;;;7.75;;
24685;SDS011;12804;51.176;4.452;2023-04-03T03:24:10;11.48;;;7.50;;
24685;SDS011;12804;51.176;4.452;2023-04-03T03:26:37;9.75;;;7.85;;
24685;SDS011;12804;51.176;4.452;2023-04-03T03:29:02;9.95;;;7.85;;
24685;SDS011;12804;51.176;4.452;2023-04-03T03:31:28;11.82;;;7.82;;
24685;SDS011;12804;51.176;4.452;2023-04-03T03:33:56;10.50;;;8.20;;
24685;SDS011;12804;51.176;4.452;2023-04-03T03:36:22;9.95;;;7.82;;
24685;SDS011;12804;51.176;4.452;2023-04-03T03:38:48;8.63;;;7.70;;
24685;SDS011;12804;51.176;4.452;2023-04-03T03:41:13;8.73;;;7.72;;
24685;SDS011;12804;51.176;4.452;2023-04-03T03:43:41;12.55;;;8.45;;
24685;SDS011;12804;51.176;4.452;2023-04-03T03:46:07;10.45;;;8.05;;
24685;SDS011;12804;51.176;4.452;2023-04-03T03:48:34;10.45;;;8.38;;
24685;SDS011;12804;51.176;4.452;2023-04-03T03:51:00;11.20;;;8.32;;
24685;SDS011;12804;51.176;4.452;2023-04-03T03:53:30;10.43;;;7.93;;
24685;SDS011;12804;51.176;4.452;2023-04-03T03:56:00;11.20;;;8.43;;
24685;SDS011;12804;51.176;4.452;2023-04-03T03:58:28;11.63;;;8.63;;
24685;SDS011;12804;51.176;4.452;2023-04-03T04:00:54;15.35;;;8.75;;
24685;SDS011;12804;51.176;4.452;2023-04-03T04:03:20;10.88;;;8.65;;
24685;SDS011;12804;51.176;4.452;2023-04-03T04:05:47;12.27;;;8.88;;
24685;SDS011;12804;51.176;4.452;2023-04-03T04:08:14;13.90;;;9.20;;
24685;SDS011;12804;51.176;4.452;2023-04-03T04:10:40;9.95;;;8.02;;
24685;SDS011;12804;51.176;4.452;2023-04-03T04:13:06;11.25;;;8.10;;
24685;SDS011;12804;51.176;4.452;2023-04-03T04:15:33;11.50;;;8.80;;
24685;SDS011;12804;51.176;4.452;2023-04-03T04:17:59;15.80;;;9.10;;
24685;SDS011;12804;51.176;4.452;2023-04-03T04:20:25;10.88;;;8.98;;
24685;SDS011;12804;51.176;4.452;2023-04-03T04:22:51;13.93;;;9.52;;
24685;SDS011;12804;51.176;4.452;2023-04-03T04:25:19;14.68;;;9.00;;
24685;SDS011;12804;51.176;4.452;2023-04-03T04:27:45;14.57;;;9.68;;
24685;SDS011;12804;51.176;4.452;2023-04-03T04:30:14;10.70;;;8.77;;
24685;SDS011;12804;51.176;4.452;2023-04-03T04:32:40;11.90;;;9.13;;
24685;SDS011;12804;51.176;4.452;2023-04-03T04:35:06;16.27;;;10.15;;
24685;SDS011;12804;51.176;4.452;2023-04-03T04:37:36;14.55;;;9.80;;
24685;SDS011;12804;51.176;4.452;2023-04-03T04:40:02;13.80;;;9.98;;
24685;SDS011;12804;51.176;4.452;2023-04-03T04:42:29;12.32;;;9.52;;
24685;SDS011;12804;51.176;4.452;2023-04-03T04:44:58;11.95;;;9.43;;
24685;SDS011;12804;51.176;4.452;2023-04-03T04:47:24;13.07;;;9.40;;
24685;SDS011;12804;51.176;4.452;2023-04-03T04:49:50;14.75;;;9.88;;
24685;SDS011;12804;51.176;4.452;2023-04-03T04:52:16;14.73;;;10.18;;
24685;SDS011;12804;51.176;4.452;2023-04-03T04:54:42;14.70;;;8.48;;
24685;SDS011;12804;51.176;4.452;2023-04-03T04:57:09;14.68;;;9.65;;
24685;SDS011;12804;51.176;4.452;2023-04-03T04:59:36;12.10;;;9.20;;
24685;SDS011;12804;51.176;4.452;2023-04-03T05:02:02;16.30;;;9.80;;
24685;SDS011;12804;51.176;4.452;2023-04-03T05:04:29;12.23;;;9.65;;
24685;SDS011;12804;51.176;4.452;2023-04-03T05:07:02;12.90;;;9.70;;
24685;SDS011;12804;51.176;4.452;2023-04-03T05:09:30;13.98;;;9.82;;
24685;SDS011;12804;51.176;4.452;2023-04-03T05:11:55;14.52;;;10.00;;
24685;SDS011;12804;51.176;4.452;2023-04-03T05:14:25;14.48;;;9.98;;
24685;SDS011;12804;51.176;4.452;2023-04-03T05:16:51;12.95;;;9.55;;
24685;SDS011;12804;51.176;4.452;2023-04-03T05:19:20;11.68;;;9.40;;
24685;SDS011;12804;51.176;4.452;2023-04-03T05:21:47;14.35;;;10.30;;
24685;SDS011;12804;51.176;4.452;2023-04-03T05:24:15;15.43;;;10.15;;
24685;SDS011;12804;51.176;4.452;2023-04-03T05:26:42;13.65;;;10.38;;
24685;SDS011;12804;51.176;4.452;2023-04-03T05:29:10;14.32;;;10.30;;
24685;SDS011;12804;51.176;4.452;2023-04-03T05:31:39;13.57;;;10.50;;
24685;SDS011;12804;51.176;4.452;2023-04-03T05:34:07;12.70;;;9.80;;
24685;SDS011;12804;51.176;4.452;2023-04-03T05:36:35;14.15;;;10.80;;
24685;SDS011;12804;51.176;4.452;2023-04-03T05:39:04;16.73;;;11.05;;
24685;SDS011;12804;51.176;4.452;2023-04-03T05:41:32;13.60;;;9.85;;
24685;SDS011;12804;51.176;4.452;2023-04-03T05:43:57;16.38;;;10.52;;
24685;SDS011;12804;51.176;4.452;2023-04-03T05:46:24;16.63;;;10.75;;
24685;SDS011;12804;51.176;4.452;2023-04-03T05:48:54;14.27;;;10.60;;
24685;SDS011;12804;51.176;4.452;2023-04-03T05:51:24;16.17;;;10.95;;
24685;SDS011;12804;51.176;4.452;2023-04-03T05:54:00;13.77;;;10.80;;
24685;SDS011;12804;51.176;4.452;2023-04-03T05:56:32;16.95;;;11.10;;
24685;SDS011;12804;51.176;4.452;2023-04-03T05:58:58;16.77;;;10.68;;
24685;SDS011;12804;51.176;4.452;2023-04-03T06:01:24;14.68;;;10.60;;
24685;SDS011;12804;51.176;4.452;2023-04-03T06:03:51;16.52;;;11.68;;
24685;SDS011;12804;51.176;4.452;2023-04-03T06:06:17;18.52;;;11.43;;
24685;SDS011;12804;51.176;4.452;2023-04-03T06:08:43;15.40;;;11.43;;
24685;SDS011;12804;51.176;4.452;2023-04-03T06:11:10;15.25;;;11.10;;
24685;SDS011;12804;51.176;4.452;2023-04-03T06:13:36;13.38;;;10.48;;
24685;SDS011;12804;51.176;4.452;2023-04-03T06:16:03;17.80;;;10.93;;
24685;SDS011;12804;51.176;4.452;2023-04-03T06:18:30;13.57;;;10.70;;
24685;SDS011;12804;51.176;4.452;2023-04-03T06:20:56;13.48;;;10.82;;
24685;SDS011;12804;51.176;4.452;2023-04-03T06:23:23;14.90;;;10.65;;
24685;SDS011;12804;51.176;4.452;2023-04-03T06:25:49;13.98;;;10.07;;
24685;SDS011;12804;51.176;4.452;2023-04-03T06:28:14;13.95;;;9.52;;
24685;SDS011;12804;51.176;4.452;2023-04-03T06:30:40;13.48;;;9.80;;
24685;SDS011;12804;51.176;4.452;2023-04-03T06:33:06;12.70;;;9.48;;
24685;SDS011;12804;51.176;4.452;2023-04-03T06:35:32;14.65;;;8.75;;
24685;SDS011;12804;51.176;4.452;2023-04-03T06:38:00;9.95;;;8.38;;
24685;SDS011;12804;51.176;4.452;2023-04-03T06:40:25;11.32;;;8.02;;
24685;SDS011;12804;51.176;4.452;2023-04-03T06:42:51;10.75;;;7.63;;
24685;SDS011;12804;51.176;4.452;2023-04-03T06:45:19;12.23;;;8.20;;
24685;SDS011;12804;51.176;4.452;2023-04-03T06:47:45;11.75;;;7.75;;
24685;SDS011;12804;51.176;4.452;2023-04-03T06:50:11;11.02;;;6.65;;
24685;SDS011;12804;51.176;4.452;2023-04-03T06:52:40;10.43;;;6.47;;
24685;SDS011;12804;51.176;4.452;2023-04-03T06:55:06;8.73;;;6.80;;
24685;SDS011;12804;51.176;4.452;2023-04-03T06:57:33;8.65;;;5.72;;
24685;SDS011;12804;51.176;4.452;2023-04-03T06:59:59;8.98;;;5.85;;
24685;SDS011;12804;51.176;4.452;2023-04-03T07:02:25;8.43;;;5.82;;
24685;SDS011;12804;51.176;4.452;2023-04-03T07:04:51;7.30;;;5.20;;
24685;SDS011;12804;51.176;4.452;2023-04-03T07:07:17;6.53;;;5.15;;
24685;SDS011;12804;51.176;4.452;2023-04-03T07:09:43;9.20;;;5.07;;
24685;SDS011;12804;51.176;4.452;2023-04-03T07:12:08;11.02;;;5.40;;
24685;SDS011;12804;51.176;4.452;2023-04-03T07:14:34;8.95;;;5.20;;
24685;SDS011;12804;51.176;4.452;2023-04-03T07:17:00;9.38;;;5.38;;
24685;SDS011;12804;51.176;4.452;2023-04-03T07:19:26;9.43;;;4.78;;
24685;SDS011;12804;51.176;4.452;2023-04-03T07:21:53;6.35;;;4.47;;
24685;SDS011;12804;51.176;4.452;2023-04-03T07:24:19;7.43;;;4.50;;
24685;SDS011;12804;51.176;4.452;2023-04-03T07:26:49;6.05;;;3.90;;
24685;SDS011;12804;51.176;4.452;2023-04-03T07:29:16;8.38;;;4.18;;
24685;SDS011;12804;51.176;4.452;2023-04-03T07:31:42;5.65;;;3.50;;
24685;SDS011;12804;51.176;4.452;2023-04-03T07:34:10;7.55;;;4.18;;
24685;SDS011;12804;51.176;4.452;2023-04-03T07:36:36;7.22;;;3.80;;
24685;SDS011;12804;51.176;4.452;2023-04-03T07:39:02;9.68;;;3.90;;
24685;SDS011;12804;51.176;4.452;2023-04-03T07:41:28;9.07;;;3.83;;
24685;SDS011;12804;51.176;4.452;2023-04-03T07:43:55;6.57;;;3.90;;
24685;SDS011;12804;51.176;4.452;2023-04-03T07:46:21;5.55;;;3.20;;
24685;SDS011;12804;51.176;4.452;2023-04-03T07:48:48;4.43;;;3.42;;
24685;SDS011;12804;51.176;4.452;2023-04-03T07:51:15;5.70;;;3.05;;
24685;SDS011;12804;51.176;4.452;2023-04-03T07:53:41;7.35;;;3.13;;
24685;SDS011;12804;51.176;4.452;2023-04-03T07:56:07;7.38;;;3.30;;
24685;SDS011;12804;51.176;4.452;2023-04-03T07:58:34;6.97;;;3.10;;
24685;SDS011;12804;51.176;4.452;2023-04-03T08:01:01;6.45;;;2.75;;
24685;SDS011;12804;51.176;4.452;2023-04-03T08:03:26;5.68;;;2.70;;
24685;SDS011;12804;51.176;4.452;2023-04-03T08:05:52;6.20;;;2.92;;
24685;SDS011;12804;51.176;4.452;2023-04-03T08:08:20;4.28;;;2.80;;
24685;SDS011;12804;51.176;4.452;2023-04-03T08:10:48;5.57;;;3.00;;
24685;SDS011;12804;51.176;4.452;2023-04-03T08:13:18;4.18;;;2.80;;
24685;SDS011;12804;51.176;4.452;2023-04-03T08:15:44;4.47;;;2.58;;
24685;SDS011;12804;51.176;4.452;2023-04-03T08:18:14;5.97;;;2.60;;
24685;SDS011;12804;51.176;4.452;2023-04-03T08:20:41;6.05;;;2.80;;
24685;SDS011;12804;51.176;4.452;2023-04-03T08:23:07;6.28;;;2.60;;
24685;SDS011;12804;51.176;4.452;2023-04-03T08:25:34;5.38;;;2.45;;
24685;SDS011;12804;51.176;4.452;2023-04-03T08:28:03;5.68;;;2.80;;
24685;SDS011;12804;51.176;4.452;2023-04-03T08:30:29;4.88;;;2.42;;
24685;SDS011;12804;51.176;4.452;2023-04-03T08:32:55;5.90;;;2.80;;
24685;SDS011;12804;51.176;4.452;2023-04-03T08:35:21;4.93;;;2.45;;
24685;SDS011;12804;51.176;4.452;2023-04-03T08:37:47;3.63;;;1.95;;
24685;SDS011;12804;51.176;4.452;2023-04-03T08:40:14;4.82;;;2.30;;
24685;SDS011;12804;51.176;4.452;2023-04-03T08:42:45;4.78;;;2.47;;
24685;SDS011;12804;51.176;4.452;2023-04-03T08:50:46;6.60;;;1.98;;
24685;SDS011;12804;51.176;4.452;2023-04-03T08:55:51;3.72;;;1.77;;
24685;SDS011;12804;51.176;4.452;2023-04-03T08:58:22;4.38;;;2.13;;
24685;SDS011;12804;51.176;4.452;2023-04-03T09:03:20;3.85;;;1.52;;
24685;SDS011;12804;51.176;4.452;2023-04-03T09:05:53;3.72;;;1.90;;
24685;SDS011;12804;51.176;4.452;2023-04-03T09:08:28;3.65;;;1.70;;
24685;SDS011;12804;51.176;4.452;2023-04-03T09:11:06;3.00;;;1.60;;
24685;SDS011;12804;51.176;4.452;2023-04-03T09:13:57;4.80;;;1.60;;
24685;SDS011;12804;51.176;4.452;2023-04-03T09:25:15;3.95;;;1.55;;
24685;SDS011;12804;51.176;4.452;2023-04-03T09:27:45;7.03;;;1.63;;
24685;SDS011;12804;51.176;4.452;2023-04-03T09:30:18;4.53;;;1.63;;
24685;SDS011;12804;51.176;4.452;2023-04-03T09:32:48;5.47;;;1.60;;
24685;SDS011;12804;51.176;4.452;2023-04-03T09:35:26;3.75;;;1.60;;
24685;SDS011;12804;51.176;4.452;2023-04-03T09:42:52;5.82;;;1.30;;
24685;SDS011;12804;51.176;4.452;2023-04-03T09:45:23;3.20;;;1.30;;
24685;SDS011;12804;51.176;4.452;2023-04-03T09:50:41;3.75;;;1.20;;
24685;SDS011;12804;51.176;4.452;2023-04-03T09:56:02;2.17;;;1.13;;
24685;SDS011;12804;51.176;4.452;2023-04-03T09:58:31;4.03;;;1.13;;
24685;SDS011;12804;51.176;4.452;2023-04-03T10:01:02;3.38;;;1.25;;
24685;SDS011;12804;51.176;4.452;2023-04-03T10:03:30;2.67;;;1.40;;
24685;SDS011;12804;51.176;4.452;2023-04-03T10:06:01;3.53;;;1.60;;
24685;SDS011;12804;51.176;4.452;2023-04-03T10:08:32;3.58;;;1.20;;
24685;SDS011;12804;51.176;4.452;2023-04-03T10:13:57;3.30;;;1.17;;
24685;SDS011;12804;51.176;4.452;2023-04-03T10:16:38;4.50;;;1.10;;
24685;SDS011;12804;51.176;4.452;2023-04-03T10:22:15;2.95;;;1.17;;
24685;SDS011;12804;51.176;4.452;2023-04-03T10:25:02;3.47;;;1.08;;
24685;SDS011;12804;51.176;4.452;2023-04-03T10:27:42;1.52;;;0.82;;
24685;SDS011;12804;51.176;4.452;2023-04-03T10:36:07;1.83;;;1.10;;
24685;SDS011;12804;51.176;4.452;2023-04-03T10:41:30;3.03;;;0.98;;
24685;SDS011;12804;51.176;4.452;2023-04-03T10:46:49;2.08;;;1.05;;
24685;SDS011;12804;51.176;4.452;2023-04-03T10:57:39;1.60;;;0.88;;
24685;SDS011;12804;51.176;4.452;2023-04-03T11:00:10;2.97;;;0.95;;
24685;SDS011;12804;51.176;4.452;2023-04-03T11:05:26;1.70;;;0.80;;
24685;SDS011;12804;51.176;4.452;2023-04-03T11:08:18;2.47;;;0.80;;
24685;SDS011;12804;51.176;4.452;2023-04-03T11:11:00;4.40;;;0.88;;
24685;SDS011;12804;51.176;4.452;2023-04-03T11:13:34;1.58;;;0.80;;
24685;SDS011;12804;51.176;4.452;2023-04-03T11:16:16;2.08;;;0.80;;
24685;SDS011;12804;51.176;4.452;2023-04-03T11:18:52;2.30;;;0.90;;
24685;SDS011;12804;51.176;4.452;2023-04-03T11:23:56;2.10;;;0.75;;
24685;SDS011;12804;51.176;4.452;2023-04-03T11:26:25;2.28;;;0.63;;
24685;SDS011;12804;51.176;4.452;2023-04-03T11:29:05;1.92;;;0.90;;
24685;SDS011;12804;51.176;4.452;2023-04-03T11:39:53;2.80;;;0.82;;
24685;SDS011;12804;51.176;4.452;2023-04-03T11:47:57;0.95;;;0.60;;
24685;SDS011;12804;51.176;4.452;2023-04-03T11:58:15;1.25;;;0.45;;
24685;SDS011;12804;51.176;4.452;2023-04-03T12:18:56;0.77;;;0.50;;
24685;SDS011;12804;51.176;4.452;2023-04-03T12:24:00;1.40;;;0.82;;
24685;SDS011;12804;51.176;4.452;2023-04-03T12:26:32;4.00;;;0.70;;
24685;SDS011;12804;51.176;4.452;2023-04-03T12:29:01;1.90;;;0.90;;
24685;SDS011;12804;51.176;4.452;2023-04-03T12:31:42;1.70;;;0.80;;
24685;SDS011;12804;51.176;4.452;2023-04-03T12:34:30;3.25;;;0.90;;
24685;SDS011;12804;51.176;4.452;2023-04-03T12:37:05;1.05;;;0.60;;
24685;SDS011;12804;51.176;4.452;2023-04-03T12:47:40;1.55;;;0.80;;
24685;SDS011;12804;51.176;4.452;2023-04-03T12:52:57;1.25;;;0.70;;
24685;SDS011;12804;51.176;4.452;2023-04-03T12:55:27;1.48;;;0.60;;
24685;SDS011;12804;51.176;4.452;2023-04-03T12:57:53;1.63;;;0.93;;
24685;SDS011;12804;51.176;4.452;2023-04-03T13:02:53;2.00;;;0.80;;
24685;SDS011;12804;51.176;4.452;2023-04-03T13:05:20;1.60;;;0.73;;
24685;SDS011;12804;51.176;4.452;2023-04-03T13:07:48;2.60;;;0.90;;
24685;SDS011;12804;51.176;4.452;2023-04-03T13:10:22;1.67;;;0.73;;
24685;SDS011;12804;51.176;4.452;2023-04-03T13:17:55;1.55;;;0.70;;
24685;SDS011;12804;51.176;4.452;2023-04-03T13:25:24;2.53;;;0.90;;
24685;SDS011;12804;51.176;4.452;2023-04-03T13:27:54;1.13;;;0.70;;
24685;SDS011;12804;51.176;4.452;2023-04-03T13:30:25;2.67;;;0.93;;
24685;SDS011;12804;51.176;4.452;2023-04-03T13:32:57;1.70;;;0.70;;
24685;SDS011;12804;51.176;4.452;2023-04-03T13:35:35;1.42;;;0.70;;
24685;SDS011;12804;51.176;4.452;2023-04-03T13:38:05;1.55;;;0.70;;
24685;SDS011;12804;51.176;4.452;2023-04-03T13:40:56;1.60;;;0.88;;
24685;SDS011;12804;51.176;4.452;2023-04-03T13:43:26;1.88;;;1.02;;
24685;SDS011;12804;51.176;4.452;2023-04-03T13:48:44;1.30;;;0.73;;
24685;SDS011;12804;51.176;4.452;2023-04-03T13:53:51;2.08;;;0.77;;
24685;SDS011;12804;51.176;4.452;2023-04-03T13:56:24;0.82;;;0.70;;
24685;SDS011;12804;51.176;4.452;2023-04-03T13:59:05;3.30;;;0.80;;
24685;SDS011;12804;51.176;4.452;2023-04-03T14:01:42;1.20;;;0.70;;
24685;SDS011;12804;51.176;4.452;2023-04-03T14:04:18;1.75;;;0.68;;
24685;SDS011;12804;51.176;4.452;2023-04-03T14:06:46;1.85;;;0.90;;
24685;SDS011;12804;51.176;4.452;2023-04-03T14:09:12;1.40;;;0.95;;
24685;SDS011;12804;51.176;4.452;2023-04-03T14:11:39;0.90;;;0.63;;
24685;SDS011;12804;51.176;4.452;2023-04-03T14:14:11;2.45;;;0.82;;
24685;SDS011;12804;51.176;4.452;2023-04-03T14:16:45;2.65;;;0.70;;
24685;SDS011;12804;51.176;4.452;2023-04-03T14:19:26;1.58;;;0.73;;
24685;SDS011;12804;51.176;4.452;2023-04-03T14:21:54;3.08;;;0.85;;
24685;SDS011;12804;51.176;4.452;2023-04-03T14:24:21;1.90;;;0.80;;
24685;SDS011;12804;51.176;4.452;2023-04-03T14:26:48;1.38;;;0.70;;
24685;SDS011;12804;51.176;4.452;2023-04-03T14:29:16;2.35;;;0.70;;
24685;SDS011;12804;51.176;4.452;2023-04-03T14:31:42;1.45;;;0.70;;
24685;SDS011;12804;51.176;4.452;2023-04-03T14:34:10;1.25;;;0.80;;
24685;SDS011;12804;51.176;4.452;2023-04-03T14:36:38;1.58;;;0.80;;
24685;SDS011;12804;51.176;4.452;2023-04-03T14:39:06;2.67;;;0.90;;
24685;SDS011;12804;51.176;4.452;2023-04-03T14:41:35;2.65;;;0.70;;
24685;SDS011;12804;51.176;4.452;2023-04-03T14:44:02;4.57;;;0.73;;
24685;SDS011;12804;51.176;4.452;2023-04-03T14:46:29;4.30;;;0.82;;
24685;SDS011;12804;51.176;4.452;2023-04-03T14:49:00;2.55;;;0.70;;
24685;SDS011;12804;51.176;4.452;2023-04-03T14:51:26;1.30;;;0.80;;
24685;SDS011;12804;51.176;4.452;2023-04-03T14:53:52;2.30;;;0.70;;
24685;SDS011;12804;51.176;4.452;2023-04-03T14:56:19;1.98;;;0.70;;
24685;SDS011;12804;51.176;4.452;2023-04-03T14:58:49;4.30;;;0.93;;
24685;SDS011;12804;51.176;4.452;2023-04-03T15:01:20;2.97;;;0.70;;
24685;SDS011;12804;51.176;4.452;2023-04-03T15:03:46;1.45;;;0.90;;
24685;SDS011;12804;51.176;4.452;2023-04-03T15:06:12;2.33;;;0.95;;
24685;SDS011;12804;51.176;4.452;2023-04-03T15:08:39;1.33;;;0.80;;
24685;SDS011;12804;51.176;4.452;2023-04-03T15:11:08;1.10;;;0.68;;
24685;SDS011;12804;51.176;4.452;2023-04-03T15:13:35;1.67;;;0.60;;
24685;SDS011;12804;51.176;4.452;2023-04-03T15:16:01;3.22;;;1.10;;
24685;SDS011;12804;51.176;4.452;2023-04-03T15:18:29;3.15;;;0.82;;
24685;SDS011;12804;51.176;4.452;2023-04-03T15:23:26;2.55;;;0.98;;
24685;SDS011;12804;51.176;4.452;2023-04-03T15:25:55;2.72;;;0.75;;
24685;SDS011;12804;51.176;4.452;2023-04-03T15:30:48;1.40;;;0.85;;
24685;SDS011;12804;51.176;4.452;2023-04-03T15:33:15;1.80;;;0.93;;
24685;SDS011;12804;51.176;4.452;2023-04-03T15:35:41;2.63;;;1.20;;
24685;SDS011;12804;51.176;4.452;2023-04-03T15:38:07;2.17;;;1.10;;
24685;SDS011;12804;51.176;4.452;2023-04-03T15:40:33;1.67;;;0.82;;
24685;SDS011;12804;51.176;4.452;2023-04-03T15:43:00;3.00;;;1.00;;
24685;SDS011;12804;51.176;4.452;2023-04-03T15:45:28;1.42;;;1.00;;
24685;SDS011;12804;51.176;4.452;2023-04-03T15:47:55;2.08;;;0.80;;
24685;SDS011;12804;51.176;4.452;2023-04-03T15:50:22;5.28;;;1.10;;
24685;SDS011;12804;51.176;4.452;2023-04-03T15:52:49;3.05;;;0.90;;
24685;SDS011;12804;51.176;4.452;2023-04-03T15:55:23;1.50;;;1.02;;
24685;SDS011;12804;51.176;4.452;2023-04-03T15:57:51;3.60;;;1.00;;
24685;SDS011;12804;51.176;4.452;2023-04-03T16:00:18;2.20;;;1.05;;
24685;SDS011;12804;51.176;4.452;2023-04-03T16:02:45;3.08;;;0.90;;
24685;SDS011;12804;51.176;4.452;2023-04-03T16:05:12;1.50;;;0.93;;
24685;SDS011;12804;51.176;4.452;2023-04-03T16:07:40;2.10;;;1.05;;
24685;SDS011;12804;51.176;4.452;2023-04-03T16:10:07;1.75;;;0.90;;
24685;SDS011;12804;51.176;4.452;2023-04-03T16:12:33;2.88;;;1.10;;
24685;SDS011;12804;51.176;4.452;2023-04-03T16:15:00;3.88;;;0.90;;
24685;SDS011;12804;51.176;4.452;2023-04-03T16:17:26;2.53;;;1.13;;
24685;SDS011;12804;51.176;4.452;2023-04-03T16:19:53;2.90;;;1.10;;
24685;SDS011;12804;51.176;4.452;2023-04-03T16:22:21;4.28;;;1.17;;
24685;SDS011;12804;51.176;4.452;2023-04-03T16:24:49;2.70;;;1.02;;
24685;SDS011;12804;51.176;4.452;2023-04-03T16:27:15;1.88;;;1.10;;
24685;SDS011;12804;51.176;4.452;2023-04-03T16:29:41;3.60;;;1.20;;
24685;SDS011;12804;51.176;4.452;2023-04-03T16:32:07;3.42;;;0.88;;
24685;SDS011;12804;51.176;4.452;2023-04-03T16:34:36;4.03;;;1.10;;
24685;SDS011;12804;51.176;4.452;2023-04-03T16:37:02;2.78;;;1.08;;
24685;SDS011;12804;51.176;4.452;2023-04-03T16:39:28;3.38;;;1.08;;
24685;SDS011;12804;51.176;4.452;2023-04-03T16:41:54;3.50;;;1.17;;
24685;SDS011;12804;51.176;4.452;2023-04-03T16:44:20;1.60;;;1.05;;
24685;SDS011;12804;51.176;4.452;2023-04-03T16:46:46;1.30;;;1.00;;
24685;SDS011;12804;51.176;4.452;2023-04-03T16:49:12;6.13;;;1.25;;
24685;SDS011;12804;51.176;4.452;2023-04-03T16:51:37;3.17;;;1.10;;
24685;SDS011;12804;51.176;4.452;2023-04-03T16:54:03;3.13;;;1.10;;
24685;SDS011;12804;51.176;4.452;2023-04-03T16:56:29;2.80;;;1.33;;
24685;SDS011;12804;51.176;4.452;2023-04-03T16:58:55;2.10;;;1.00;;
24685;SDS011;12804;51.176;4.452;2023-04-03T17:01:21;1.88;;;1.05;;
24685;SDS011;12804;51.176;4.452;2023-04-03T17:03:48;2.95;;;1.15;;
24685;SDS011;12804;51.176;4.452;2023-04-03T17:06:18;3.85;;;1.50;;
24685;SDS011;12804;51.176;4.452;2023-04-03T17:08:46;2.67;;;1.55;;
24685;SDS011;12804;51.176;4.452;2023-04-03T17:11:28;1.42;;;0.93;;
24685;SDS011;12804;51.176;4.452;2023-04-03T17:13:55;2.78;;;1.10;;